sensor_id;sensor_type;location;lat;lon;timestamp;pressure;altitude;pressure_sealevel;temperature;humidity
35892;BME280;21993;42.672;23.296;2023-08-20T00:01:44;94946.19;;;25.38;48.12
35892;BME280;21993;42.672;23.296;2023-08-20T00:04:10;94954.94;;;25.33;48.63
35892;BME280;21993;42.672;23.296;2023-08-20T00:06:35;94951.22;;;25.34;48.06
35892;BME280;21993;42.672;23.296;2023-08-20T00:09:01;94954.69;;;25.16;48.68
35892;BME280;21993;42.672;23.296;2023-08-20T00:11:26;94959.09;;;25.29;48.57
35892;BME280;21993;42.672;23.296;2023-08-20T00:13:52;94948.53;;;25.34;48.54
35892;BME280;21993;42.672;23.296;2023-08-20T00:16:17;94940.56;;;25.21;48.40
35892;BME280;21993;42.672;23.296;2023-08-20T00:18:43;94945.94;;;25.21;48.40
35892;BME280;21993;42.672;23.296;2023-08-20T00:21:09;94944.63;;;25.30;48.76
35892;BME280;21993;42.672;23.296;2023-08-20T00:23:35;94948.44;;;25.22;48.48
35892;BME280;21993;42.672;23.296;2023-08-20T00:26:01;94950.63;;;25.32;48.39
35892;BME280;21993;42.672;23.296;2023-08-20T00:28:27;94955.75;;;25.34;48.57
35892;BME280;21993;42.672;23.296;2023-08-20T00:30:53;94952.69;;;25.30;48.18
35892;BME280;21993;42.672;23.296;2023-08-20T00:33:18;94956.81;;;25.33;48.01
35892;BME280;21993;42.672;23.296;2023-08-20T00:35:43;94946.56;;;25.23;48.55
35892;BME280;21993;42.672;23.296;2023-08-20T00:38:09;94942.47;;;25.14;48.80
35892;BME280;21993;42.672;23.296;2023-08-20T00:40:34;94945.34;;;25.19;48.74
35892;BME280;21993;42.672;23.296;2023-08-20T00:43:00;94939.97;;;25.19;48.04
35892;BME280;21993;42.672;23.296;2023-08-20T00:45:26;94947.50;;;25.10;48.29
35892;BME280;21993;42.672;23.296;2023-08-20T00:47:52;94947.25;;;25.12;48.97
35892;BME280;21993;42.672;23.296;2023-08-20T00:50:18;94948.25;;;25.17;48.11
35892;BME280;21993;42.672;23.296;2023-08-20T00:52:45;94950.53;;;25.14;48.35
35892;BME280;21993;42.672;23.296;2023-08-20T00:55:12;94948.16;;;25.06;48.87
35892;BME280;21993;42.672;23.296;2023-08-20T00:57:40;94945.03;;;25.02;48.70
35892;BME280;21993;42.672;23.296;2023-08-20T01:00:07;94946.66;;;25.10;48.97
35892;BME280;21993;42.672;23.296;2023-08-20T01:02:34;94947.66;;;25.15;48.78
35892;BME280;21993;42.672;23.296;2023-08-20T01:05:00;94941.25;;;25.16;48.19
35892;BME280;21993;42.672;23.296;2023-08-20T01:13:17;94946.75;;;25.21;48.28
35892;BME280;21993;42.672;23.296;2023-08-20T01:15:43;94942.38;;;25.27;48.46
35892;BME280;21993;42.672;23.296;2023-08-20T01:18:08;94941.56;;;25.26;49.08
35892;BME280;21993;42.672;23.296;2023-08-20T01:20:39;94941.34;;;25.28;48.93
35892;BME280;21993;42.672;23.296;2023-08-20T01:23:12;94940.50;;;25.27;48.92
35892;BME280;21993;42.672;23.296;2023-08-20T01:26:07;94937.69;;;25.22;48.62
35892;BME280;21993;42.672;23.296;2023-08-20T01:28:38;94937.34;;;25.12;49.37
35892;BME280;21993;42.672;23.296;2023-08-20T01:31:05;94938.25;;;25.06;49.58
35892;BME280;21993;42.672;23.296;2023-08-20T01:33:31;94939.88;;;25.07;49.08
35892;BME280;21993;42.672;23.296;2023-08-20T01:35:57;94935.75;;;25.05;49.54
35892;BME280;21993;42.672;23.296;2023-08-20T01:38:22;94939.66;;;25.09;49.04
35892;BME280;21993;42.672;23.296;2023-08-20T01:40:48;94932.03;;;25.06;49.07
35892;BME280;21993;42.672;23.296;2023-08-20T01:43:14;94923.53;;;25.09;49.10
35892;BME280;21993;42.672;23.296;2023-08-20T01:45:40;94929.72;;;25.09;49.17
35892;BME280;21993;42.672;23.296;2023-08-20T01:48:06;94924.41;;;25.03;49.40
35892;BME280;21993;42.672;23.296;2023-08-20T01:50:32;94926.47;;;25.01;49.44
35892;BME280;21993;42.672;23.296;2023-08-20T01:52:58;94926.50;;;24.94;49.65
35892;BME280;21993;42.672;23.296;2023-08-20T01:55:23;94918.91;;;24.91;50.14
35892;BME280;21993;42.672;23.296;2023-08-20T01:57:48;94914.63;;;24.83;49.90
35892;BME280;21993;42.672;23.296;2023-08-20T02:00:14;94921.03;;;24.82;49.72
35892;BME280;21993;42.672;23.296;2023-08-20T02:02:40;94907.59;;;24.82;50.01
35892;BME280;21993;42.672;23.296;2023-08-20T02:05:05;94909.84;;;24.85;49.70
35892;BME280;21993;42.672;23.296;2023-08-20T02:07:31;94907.34;;;24.90;49.74
35892;BME280;21993;42.672;23.296;2023-08-20T02:09:56;94905.84;;;24.94;49.62
35892;BME280;21993;42.672;23.296;2023-08-20T02:12:22;94909.19;;;24.90;50.08
35892;BME280;21993;42.672;23.296;2023-08-20T02:14:47;94903.16;;;24.94;49.51
35892;BME280;21993;42.672;23.296;2023-08-20T02:17:13;94901.06;;;24.96;50.07
35892;BME280;21993;42.672;23.296;2023-08-20T02:19:39;94894.44;;;24.99;49.46
35892;BME280;21993;42.672;23.296;2023-08-20T02:22:04;94908.47;;;25.01;49.29
35892;BME280;21993;42.672;23.296;2023-08-20T02:24:30;94909.13;;;24.96;49.59
35892;BME280;21993;42.672;23.296;2023-08-20T02:26:56;94904.19;;;24.93;49.75
35892;BME280;21993;42.672;23.296;2023-08-20T02:29:21;94904.44;;;24.92;50.02
35892;BME280;21993;42.672;23.296;2023-08-20T02:31:46;94909.84;;;24.85;49.70
35892;BME280;21993;42.672;23.296;2023-08-20T02:34:12;94913.56;;;24.84;50.35
35892;BME280;21993;42.672;23.296;2023-08-20T02:36:37;94911.06;;;24.89;49.77
35892;BME280;21993;42.672;23.296;2023-08-20T02:39:03;94914.75;;;24.88;50.28
35892;BME280;21993;42.672;23.296;2023-08-20T02:41:32;94910.25;;;24.89;50.02
35892;BME280;21993;42.672;23.296;2023-08-20T02:43:58;94912.94;;;24.89;49.89
35892;BME280;21993;42.672;23.296;2023-08-20T02:46:23;94915.66;;;24.82;50.46
35892;BME280;21993;42.672;23.296;2023-08-20T02:48:49;94918.34;;;24.82;50.63
35892;BME280;21993;42.672;23.296;2023-08-20T02:51:14;94926.63;;;24.81;50.53
35892;BME280;21993;42.672;23.296;2023-08-20T02:53:39;94923.09;;;24.80;50.33
35892;BME280;21993;42.672;23.296;2023-08-20T02:56:05;94923.31;;;24.79;50.20
35892;BME280;21993;42.672;23.296;2023-08-20T02:58:30;94928.06;;;24.83;50.29
35892;BME280;21993;42.672;23.296;2023-08-20T03:00:56;94931.78;;;24.82;50.41
35892;BME280;21993;42.672;23.296;2023-08-20T03:03:22;94934.88;;;24.79;50.98
35892;BME280;21993;42.672;23.296;2023-08-20T03:05:48;94936.59;;;24.74;51.02
35892;BME280;21993;42.672;23.296;2023-08-20T03:08:13;94936.81;;;24.72;51.72
35892;BME280;21993;42.672;23.296;2023-08-20T03:10:38;94940.13;;;24.67;51.44
35892;BME280;21993;42.672;23.296;2023-08-20T03:13:04;94943.66;;;24.68;51.47
35892;BME280;21993;42.672;23.296;2023-08-20T03:15:30;94946.81;;;24.58;51.20
35892;BME280;21993;42.672;23.296;2023-08-20T03:17:55;94939.19;;;24.55;51.84
35892;BME280;21993;42.672;23.296;2023-08-20T03:20:21;94936.28;;;24.57;51.86
35892;BME280;21993;42.672;23.296;2023-08-20T03:22:47;94940.03;;;24.56;51.89
35892;BME280;21993;42.672;23.296;2023-08-20T03:25:12;94944.16;;;24.52;52.12
35892;BME280;21993;42.672;23.296;2023-08-20T03:27:37;94937.19;;;24.44;52.42
35892;BME280;21993;42.672;23.296;2023-08-20T03:30:04;94931.44;;;24.40;52.09
35892;BME280;21993;42.672;23.296;2023-08-20T03:32:29;94928.75;;;24.40;52.77
35892;BME280;21993;42.672;23.296;2023-08-20T03:34:55;94923.16;;;24.42;53.09
35892;BME280;21993;42.672;23.296;2023-08-20T03:37:21;94927.13;;;24.39;52.78
35892;BME280;21993;42.672;23.296;2023-08-20T03:39:47;94931.03;;;24.37;52.58
35892;BME280;21993;42.672;23.296;2023-08-20T03:42:13;94932.50;;;24.33;52.51
35892;BME280;21993;42.672;23.296;2023-08-20T03:44:38;94929.00;;;24.32;53.19
35892;BME280;21993;42.672;23.296;2023-08-20T03:47:04;94925.88;;;24.29;53.24
35892;BME280;21993;42.672;23.296;2023-08-20T03:49:29;94920.34;;;24.24;53.59
35892;BME280;21993;42.672;23.296;2023-08-20T03:51:54;94919.75;;;24.22;54.02
35892;BME280;21993;42.672;23.296;2023-08-20T03:54:20;94923.88;;;24.18;54.00
35892;BME280;21993;42.672;23.296;2023-08-20T03:56:45;94918.72;;;24.23;53.66
35892;BME280;21993;42.672;23.296;2023-08-20T03:59:11;94910.47;;;24.18;53.49
35892;BME280;21993;42.672;23.296;2023-08-20T04:01:36;94921.00;;;24.12;53.95
35892;BME280;21993;42.672;23.296;2023-08-20T04:04:05;94914.63;;;24.13;54.29
35892;BME280;21993;42.672;23.296;2023-08-20T04:06:31;94921.22;;;24.11;54.06
35892;BME280;21993;42.672;23.296;2023-08-20T04:08:56;94920.81;;;24.14;53.96
35892;BME280;21993;42.672;23.296;2023-08-20T04:11:22;94916.69;;;24.11;54.46
35892;BME280;21993;42.672;23.296;2023-08-20T04:13:47;94911.72;;;24.15;54.41
35892;BME280;21993;42.672;23.296;2023-08-20T04:16:13;94916.31;;;24.08;54.79
35892;BME280;21993;42.672;23.296;2023-08-20T04:18:39;94917.34;;;24.07;54.49
35892;BME280;21993;42.672;23.296;2023-08-20T04:21:04;94915.47;;;24.07;54.15
35892;BME280;21993;42.672;23.296;2023-08-20T04:23:30;94916.13;;;24.03;54.34
35892;BME280;21993;42.672;23.296;2023-08-20T04:25:55;94921.09;;;23.99;54.72
35892;BME280;21993;42.672;23.296;2023-08-20T04:28:21;94925.88;;;23.91;54.71
35892;BME280;21993;42.672;23.296;2023-08-20T04:30:46;94928.13;;;23.94;54.77
35892;BME280;21993;42.672;23.296;2023-08-20T04:33:12;94920.91;;;23.87;54.65
35892;BME280;21993;42.672;23.296;2023-08-20T04:35:37;94929.81;;;23.88;54.71
35892;BME280;21993;42.672;23.296;2023-08-20T04:38:02;94931.47;;;23.89;54.95
35892;BME280;21993;42.672;23.296;2023-08-20T04:40:28;94928.56;;;23.84;55.00
35892;BME280;21993;42.672;23.296;2023-08-20T04:42:53;94919.72;;;23.83;55.13
35892;BME280;21993;42.672;23.296;2023-08-20T04:45:19;94927.53;;;23.85;55.07
35892;BME280;21993;42.672;23.296;2023-08-20T04:47:45;94930.00;;;23.86;54.97
35892;BME280;21993;42.672;23.296;2023-08-20T04:50:11;94928.78;;;23.89;55.08
35892;BME280;21993;42.672;23.296;2023-08-20T04:52:38;94930.41;;;23.90;55.18
35892;BME280;21993;42.672;23.296;2023-08-20T04:55:04;94923.19;;;23.91;54.76
35892;BME280;21993;42.672;23.296;2023-08-20T04:57:30;94919.84;;;23.95;55.14
35892;BME280;21993;42.672;23.296;2023-08-20T04:59:55;94926.72;;;23.84;55.92
35892;BME280;21993;42.672;23.296;2023-08-20T05:02:20;94934.16;;;23.82;55.97
35892;BME280;21993;42.672;23.296;2023-08-20T05:04:46;94926.91;;;23.90;55.32
35892;BME280;21993;42.672;23.296;2023-08-20T05:07:11;94928.94;;;23.94;54.79
35892;BME280;21993;42.672;23.296;2023-08-20T05:09:37;94929.97;;;23.93;55.44
35892;BME280;21993;42.672;23.296;2023-08-20T05:12:02;94925.28;;;23.89;55.48
35892;BME280;21993;42.672;23.296;2023-08-20T05:14:29;94930.19;;;23.98;55.25
35892;BME280;21993;42.672;23.296;2023-08-20T05:16:55;94940.09;;;23.98;55.24
35892;BME280;21993;42.672;23.296;2023-08-20T05:19:20;94942.34;;;23.94;55.99
35892;BME280;21993;42.672;23.296;2023-08-20T05:21:46;94938.22;;;23.98;55.53
35892;BME280;21993;42.672;23.296;2023-08-20T05:24:11;94945.63;;;24.03;55.88
35892;BME280;21993;42.672;23.296;2023-08-20T05:26:36;94941.66;;;24.12;55.21
35892;BME280;21993;42.672;23.296;2023-08-20T05:29:02;94942.88;;;24.16;55.26
35892;BME280;21993;42.672;23.296;2023-08-20T05:31:27;94939.59;;;24.14;55.57
35892;BME280;21993;42.672;23.296;2023-08-20T05:33:53;94942.91;;;24.09;55.75
35892;BME280;21993;42.672;23.296;2023-08-20T05:36:18;94940.81;;;24.18;55.73
35892;BME280;21993;42.672;23.296;2023-08-20T05:38:44;94948.84;;;24.25;55.92
35892;BME280;21993;42.672;23.296;2023-08-20T05:41:09;94946.97;;;24.25;55.53
35892;BME280;21993;42.672;23.296;2023-08-20T05:43:34;94948.97;;;24.43;54.91
35892;BME280;21993;42.672;23.296;2023-08-20T05:46:02;94958.66;;;24.44;54.42
35892;BME280;21993;42.672;23.296;2023-08-20T05:48:27;94954.31;;;24.50;54.38
35892;BME280;21993;42.672;23.296;2023-08-20T05:50:53;94957.72;;;24.63;55.01
35892;BME280;21993;42.672;23.296;2023-08-20T05:53:18;94957.50;;;24.65;54.49
35892;BME280;21993;42.672;23.296;2023-08-20T05:55:44;94958.59;;;24.57;55.11
35892;BME280;21993;42.672;23.296;2023-08-20T05:58:09;94953.38;;;24.62;54.85
35892;BME280;21993;42.672;23.296;2023-08-20T06:00:34;94950.84;;;24.74;54.95
35892;BME280;21993;42.672;23.296;2023-08-20T06:03:00;94954.03;;;24.89;54.18
35892;BME280;21993;42.672;23.296;2023-08-20T06:05:25;94950.25;;;24.97;54.21
35892;BME280;21993;42.672;23.296;2023-08-20T06:07:51;94948.16;;;25.06;53.95
35892;BME280;21993;42.672;23.296;2023-08-20T06:10:16;94952.94;;;25.22;53.11
35892;BME280;21993;42.672;23.296;2023-08-20T06:12:42;94948.72;;;25.14;53.50
35892;BME280;21993;42.672;23.296;2023-08-20T06:15:08;94950.63;;;25.32;53.56
35892;BME280;21993;42.672;23.296;2023-08-20T06:17:33;94949.28;;;25.41;52.12
35892;BME280;21993;42.672;23.296;2023-08-20T06:19:59;94960.25;;;25.40;52.32
35892;BME280;21993;42.672;23.296;2023-08-20T06:22:24;94965.19;;;25.43;52.76
35892;BME280;21993;42.672;23.296;2023-08-20T06:24:49;94958.94;;;25.49;52.88
35892;BME280;21993;42.672;23.296;2023-08-20T06:27:15;94958.41;;;25.59;53.01
35892;BME280;21993;42.672;23.296;2023-08-20T06:29:40;94954.69;;;25.60;52.54
35892;BME280;21993;42.672;23.296;2023-08-20T06:32:05;94946.94;;;25.88;51.81
35892;BME280;21993;42.672;23.296;2023-08-20T06:34:31;94951.66;;;25.93;51.90
35892;BME280;21993;42.672;23.296;2023-08-20T06:36:56;94957.88;;;25.93;52.02
35892;BME280;21993;42.672;23.296;2023-08-20T06:39:22;94956.81;;;25.94;52.04
35892;BME280;21993;42.672;23.296;2023-08-20T06:41:47;94959.78;;;26.04;51.84
35892;BME280;21993;42.672;23.296;2023-08-20T06:44:12;94956.38;;;26.16;51.59
35892;BME280;21993;42.672;23.296;2023-08-20T06:46:38;94955.44;;;26.22;51.69
35892;BME280;21993;42.672;23.296;2023-08-20T06:49:03;94958.44;;;26.32;50.91
35892;BME280;21993;42.672;23.296;2023-08-20T06:51:29;94952.75;;;26.40;51.27
35892;BME280;21993;42.672;23.296;2023-08-20T06:53:54;94949.31;;;26.33;51.39
35892;BME280;21993;42.672;23.296;2023-08-20T06:56:21;94958.31;;;26.57;49.84
35892;BME280;21993;42.672;23.296;2023-08-20T06:58:47;94952.25;;;26.61;50.68
35892;BME280;21993;42.672;23.296;2023-08-20T07:01:12;94951.03;;;26.76;50.21
35892;BME280;21993;42.672;23.296;2023-08-20T07:03:39;94953.22;;;26.67;49.80
35892;BME280;21993;42.672;23.296;2023-08-20T07:06:05;94958.28;;;26.75;49.79
35892;BME280;21993;42.672;23.296;2023-08-20T07:08:30;94956.81;;;26.91;48.50
35892;BME280;21993;42.672;23.296;2023-08-20T07:10:56;94949.72;;;27.08;46.83
35892;BME280;21993;42.672;23.296;2023-08-20T07:13:22;94944.91;;;27.10;46.75
35892;BME280;21993;42.672;23.296;2023-08-20T07:15:48;94953.00;;;27.22;46.33
35892;BME280;21993;42.672;23.296;2023-08-20T07:18:14;94950.66;;;27.14;46.10
35892;BME280;21993;42.672;23.296;2023-08-20T07:20:42;94959.00;;;27.36;46.20
35892;BME280;21993;42.672;23.296;2023-08-20T07:23:08;94958.75;;;27.49;46.13
35892;BME280;21993;42.672;23.296;2023-08-20T07:25:36;94957.94;;;27.48;45.49
35892;BME280;21993;42.672;23.296;2023-08-20T07:28:03;94954.22;;;27.49;45.82
35892;BME280;21993;42.672;23.296;2023-08-20T07:30:28;94958.78;;;27.61;45.50
35892;BME280;21993;42.672;23.296;2023-08-20T07:32:54;94965.34;;;27.53;45.25
35892;BME280;21993;42.672;23.296;2023-08-20T07:35:20;94956.19;;;27.54;45.41
35892;BME280;21993;42.672;23.296;2023-08-20T07:37:45;94958.31;;;27.52;45.15
35892;BME280;21993;42.672;23.296;2023-08-20T07:40:12;94959.59;;;27.26;45.94
35892;BME280;21993;42.672;23.296;2023-08-20T07:42:40;94957.25;;;27.41;45.67
35892;BME280;21993;42.672;23.296;2023-08-20T07:45:05;94961.59;;;27.42;45.64
35892;BME280;21993;42.672;23.296;2023-08-20T07:47:32;94966.50;;;27.45;45.77
35892;BME280;21993;42.672;23.296;2023-08-20T07:49:57;94958.31;;;27.52;45.28
35892;BME280;21993;42.672;23.296;2023-08-20T07:52:23;94956.53;;;27.58;45.22
35892;BME280;21993;42.672;23.296;2023-08-20T07:54:48;94964.91;;;27.68;44.81
35892;BME280;21993;42.672;23.296;2023-08-20T07:57:14;94957.97;;;27.72;45.13
35892;BME280;21993;42.672;23.296;2023-08-20T07:59:39;94959.00;;;27.59;45.11
35892;BME280;21993;42.672;23.296;2023-08-20T08:02:05;94962.28;;;27.61;45.37
35892;BME280;21993;42.672;23.296;2023-08-20T08:04:30;94956.31;;;27.71;45.05
35892;BME280;21993;42.672;23.296;2023-08-20T08:06:56;94954.53;;;27.88;44.11
35892;BME280;21993;42.672;23.296;2023-08-20T08:09:28;94961.22;;;27.97;43.64
35892;BME280;21993;42.672;23.296;2023-08-20T08:11:54;94959.09;;;27.99;43.34
35892;BME280;21993;42.672;23.296;2023-08-20T08:14:19;94951.22;;;28.10;43.03
35892;BME280;21993;42.672;23.296;2023-08-20T08:16:46;94952.63;;;28.12;43.27
35892;BME280;21993;42.672;23.296;2023-08-20T08:19:12;94960.84;;;28.17;42.53
35892;BME280;21993;42.672;23.296;2023-08-20T08:21:37;94950.06;;;28.05;43.01
35892;BME280;21993;42.672;23.296;2023-08-20T08:24:03;94954.00;;;28.26;42.10
35892;BME280;21993;42.672;23.296;2023-08-20T08:26:29;94951.41;;;28.31;42.84
35892;BME280;21993;42.672;23.296;2023-08-20T08:28:55;94949.75;;;28.42;41.31
35892;BME280;21993;42.672;23.296;2023-08-20T08:31:20;94952.16;;;28.55;41.62
35892;BME280;21993;42.672;23.296;2023-08-20T08:33:45;94951.09;;;28.56;41.03
35892;BME280;21993;42.672;23.296;2023-08-20T08:36:11;94951.34;;;28.55;41.12
35892;BME280;21993;42.672;23.296;2023-08-20T08:38:37;94947.28;;;28.69;39.84
35892;BME280;21993;42.672;23.296;2023-08-20T08:41:04;94956.63;;;28.78;39.82
35892;BME280;21993;42.672;23.296;2023-08-20T08:43:32;94955.69;;;28.84;39.71
35892;BME280;21993;42.672;23.296;2023-08-20T08:45:57;94957.09;;;28.75;40.08
35892;BME280;21993;42.672;23.296;2023-08-20T08:48:25;94952.97;;;28.84;37.94
35892;BME280;21993;42.672;23.296;2023-08-20T08:50:51;94952.72;;;28.86;38.73
35892;BME280;21993;42.672;23.296;2023-08-20T08:53:17;94951.13;;;29.02;37.88
35892;BME280;21993;42.672;23.296;2023-08-20T08:55:43;94945.38;;;28.98;38.70
35892;BME280;21993;42.672;23.296;2023-08-20T08:58:08;94956.38;;;29.08;38.35
35892;BME280;21993;42.672;23.296;2023-08-20T09:00:34;94943.91;;;29.41;36.97
35892;BME280;21993;42.672;23.296;2023-08-20T09:02:59;94948.44;;;29.35;38.65
35892;BME280;21993;42.672;23.296;2023-08-20T09:05:25;94944.81;;;29.47;37.54
35892;BME280;21993;42.672;23.296;2023-08-20T09:07:56;94940.75;;;29.61;36.88
35892;BME280;21993;42.672;23.296;2023-08-20T09:10:25;94953.09;;;29.74;36.27
35892;BME280;21993;42.672;23.296;2023-08-20T09:12:50;94948.06;;;29.82;35.52
35892;BME280;21993;42.672;23.296;2023-08-20T09:15:19;94942.41;;;29.84;35.46
35892;BME280;21993;42.672;23.296;2023-08-20T09:17:44;94933.50;;;29.66;36.94
35892;BME280;21993;42.672;23.296;2023-08-20T09:20:10;94940.28;;;29.86;36.14
35892;BME280;21993;42.672;23.296;2023-08-20T09:22:35;94937.38;;;29.92;37.17
35892;BME280;21993;42.672;23.296;2023-08-20T09:25:02;94938.34;;;30.03;36.92
35892;BME280;21993;42.672;23.296;2023-08-20T09:27:28;94949.59;;;30.12;36.54
35892;BME280;21993;42.672;23.296;2023-08-20T09:29:54;94941.25;;;30.18;35.77
35892;BME280;21993;42.672;23.296;2023-08-20T09:32:24;94939.81;;;30.33;36.12
35892;BME280;21993;42.672;23.296;2023-08-20T09:34:51;94940.19;;;30.41;34.90
35892;BME280;21993;42.672;23.296;2023-08-20T09:37:19;94941.09;;;30.52;34.98
35892;BME280;21993;42.672;23.296;2023-08-20T09:39:44;94932.16;;;30.51;34.83
35892;BME280;21993;42.672;23.296;2023-08-20T09:42:11;94940.19;;;30.41;35.58
35892;BME280;21993;42.672;23.296;2023-08-20T09:44:39;94932.59;;;30.43;34.72
35892;BME280;21993;42.672;23.296;2023-08-20T09:47:12;94929.72;;;30.50;34.26
35892;BME280;21993;42.672;23.296;2023-08-20T09:49:46;94939.00;;;30.59;33.47
35892;BME280;21993;42.672;23.296;2023-08-20T09:52:16;94948.25;;;30.85;33.42
35892;BME280;21993;42.672;23.296;2023-08-20T09:54:55;94927.38;;;30.86;34.05
35892;BME280;21993;42.672;23.296;2023-08-20T09:57:30;94920.44;;;30.95;33.53
35892;BME280;21993;42.672;23.296;2023-08-20T09:59:58;94931.59;;;30.98;34.22
35892;BME280;21993;42.672;23.296;2023-08-20T10:02:25;94919.38;;;31.01;33.75
35892;BME280;21993;42.672;23.296;2023-08-20T10:04:52;94921.50;;;30.94;34.10
35892;BME280;21993;42.672;23.296;2023-08-20T10:07:18;94926.97;;;30.99;33.45
35892;BME280;21993;42.672;23.296;2023-08-20T10:09:44;94933.78;;;31.01;33.34
35892;BME280;21993;42.672;23.296;2023-08-20T10:12:13;94921.63;;;31.09;33.55
35892;BME280;21993;42.672;23.296;2023-08-20T10:14:38;94922.78;;;31.13;33.24
35892;BME280;21993;42.672;23.296;2023-08-20T10:17:12;94919.25;;;31.13;33.82
35892;BME280;21993;42.672;23.296;2023-08-20T10:19:37;94911.28;;;31.33;32.32
35892;BME280;21993;42.672;23.296;2023-08-20T10:22:04;94924.84;;;31.33;31.99
35892;BME280;21993;42.672;23.296;2023-08-20T10:24:53;94918.94;;;31.41;32.76
35892;BME280;21993;42.672;23.296;2023-08-20T10:27:32;94925.50;;;31.45;33.04
35892;BME280;21993;42.672;23.296;2023-08-20T10:29:59;94921.53;;;31.63;32.30
35892;BME280;21993;42.672;23.296;2023-08-20T10:32:50;94919.66;;;31.69;32.71
35892;BME280;21993;42.672;23.296;2023-08-20T10:35:27;94904.53;;;31.78;32.35
35892;BME280;21993;42.672;23.296;2023-08-20T10:38:12;94911.97;;;31.98;31.75
35892;BME280;21993;42.672;23.296;2023-08-20T10:40:57;94902.75;;;31.99;32.03
35892;BME280;21993;42.672;23.296;2023-08-20T10:46:14;94910.69;;;32.15;31.92
35892;BME280;21993;42.672;23.296;2023-08-20T10:48:41;94899.31;;;32.24;30.98
35892;BME280;21993;42.672;23.296;2023-08-20T10:51:11;94894.09;;;32.07;32.38
35892;BME280;21993;42.672;23.296;2023-08-20T10:53:38;94900.91;;;32.19;31.55
35892;BME280;21993;42.672;23.296;2023-08-20T10:56:16;94897.16;;;32.20;31.83
35892;BME280;21993;42.672;23.296;2023-08-20T10:58:46;94904.75;;;32.24;31.67
35892;BME280;21993;42.672;23.296;2023-08-20T11:01:20;94894.50;;;32.31;31.79
35892;BME280;21993;42.672;23.296;2023-08-20T11:03:48;94890.69;;;32.37;31.51
35892;BME280;21993;42.672;23.296;2023-08-20T11:06:14;94894.25;;;32.37;31.40
35892;BME280;21993;42.672;23.296;2023-08-20T11:08:41;94889.03;;;32.36;31.19
35892;BME280;21993;42.672;23.296;2023-08-20T11:11:07;94886.91;;;32.38;31.68
35892;BME280;21993;42.672;23.296;2023-08-20T11:13:33;94890.69;;;32.42;31.05
35892;BME280;21993;42.672;23.296;2023-08-20T11:16:01;94892.09;;;32.49;30.03
35892;BME280;21993;42.672;23.296;2023-08-20T11:18:27;94880.66;;;32.42;30.39
35892;BME280;21993;42.672;23.296;2023-08-20T11:20:54;94880.66;;;32.42;31.10
35892;BME280;21993;42.672;23.296;2023-08-20T11:23:20;94870.88;;;32.46;31.07
35892;BME280;21993;42.672;23.296;2023-08-20T11:25:45;94881.47;;;32.53;31.40
35892;BME280;21993;42.672;23.296;2023-08-20T11:28:11;94876.34;;;32.62;31.02
35892;BME280;21993;42.672;23.296;2023-08-20T11:30:36;94867.66;;;32.75;30.56
35892;BME280;21993;42.672;23.296;2023-08-20T11:33:02;94871.22;;;32.81;30.66
35892;BME280;21993;42.672;23.296;2023-08-20T11:35:28;94872.84;;;32.87;30.27
35892;BME280;21993;42.672;23.296;2023-08-20T11:37:54;94877.50;;;32.91;30.57
35892;BME280;21993;42.672;23.296;2023-08-20T11:40:22;94856.00;;;32.90;29.68
35892;BME280;21993;42.672;23.296;2023-08-20T11:42:48;94861.97;;;32.87;30.70
35892;BME280;21993;42.672;23.296;2023-08-20T11:45:14;94856.56;;;32.92;30.18
35892;BME280;21993;42.672;23.296;2023-08-20T11:47:40;94861.44;;;32.85;29.96
35892;BME280;21993;42.672;23.296;2023-08-20T11:50:06;94853.28;;;32.95;30.16
35892;BME280;21993;42.672;23.296;2023-08-20T11:52:33;94864.72;;;32.92;30.46
35892;BME280;21993;42.672;23.296;2023-08-20T11:54:59;94867.44;;;32.92;30.54
35892;BME280;21993;42.672;23.296;2023-08-20T11:57:25;94863.28;;;32.59;30.30
35892;BME280;21993;42.672;23.296;2023-08-20T11:59:51;94863.03;;;32.75;30.15
35892;BME280;21993;42.672;23.296;2023-08-20T12:02:24;94853.25;;;32.80;30.35
35892;BME280;21993;42.672;23.296;2023-08-20T12:04:50;94857.59;;;32.70;30.66
35892;BME280;21993;42.672;23.296;2023-08-20T12:07:16;94852.97;;;32.76;30.10
35892;BME280;21993;42.672;23.296;2023-08-20T12:09:42;94851.09;;;32.87;30.20
35892;BME280;21993;42.672;23.296;2023-08-20T12:12:08;94859.25;;;32.87;30.44
35892;BME280;21993;42.672;23.296;2023-08-20T12:14:34;94843.22;;;32.85;30.46
35892;BME280;21993;42.672;23.296;2023-08-20T12:16:59;94840.78;;;32.89;30.95
35892;BME280;21993;42.672;23.296;2023-08-20T12:19:25;94845.13;;;32.85;30.56
35892;BME280;21993;42.672;23.296;2023-08-20T12:21:50;94839.69;;;33.00;30.51
35892;BME280;21993;42.672;23.296;2023-08-20T12:24:16;94838.31;;;33.08;30.73
35892;BME280;21993;42.672;23.296;2023-08-20T12:26:42;94833.97;;;33.07;30.41
35892;BME280;21993;42.672;23.296;2023-08-20T12:29:07;94828.00;;;33.04;30.35
35892;BME280;21993;42.672;23.296;2023-08-20T12:31:34;94834.25;;;33.00;30.88
35892;BME280;21993;42.672;23.296;2023-08-20T12:33:59;94832.59;;;33.04;31.27
35892;BME280;21993;42.672;23.296;2023-08-20T12:36:25;94833.69;;;33.13;31.23
35892;BME280;21993;42.672;23.296;2023-08-20T12:38:50;94830.41;;;33.11;31.91
35892;BME280;21993;42.672;23.296;2023-08-20T12:41:16;94828.22;;;33.18;31.52
35892;BME280;21993;42.672;23.296;2023-08-20T12:43:41;94824.41;;;33.19;31.83
35892;BME280;21993;42.672;23.296;2023-08-20T12:46:07;94820.91;;;33.09;31.80
35892;BME280;21993;42.672;23.296;2023-08-20T12:48:32;94818.75;;;33.06;31.86
35892;BME280;21993;42.672;23.296;2023-08-20T12:50:58;94824.69;;;33.13;32.00
35892;BME280;21993;42.672;23.296;2023-08-20T12:53:24;94823.88;;;33.17;31.48
35892;BME280;21993;42.672;23.296;2023-08-20T12:55:49;94820.88;;;33.19;31.37